createdAt,value
2022-08-08T00:00:52.465Z,23.50
2022-08-08T00:02:38.378Z,23.20
2022-08-08T00:05:44.172Z,23.40
2022-08-08T00:08:36.970Z,23.60
2022-08-08T00:11:46.976Z,23.70
2022-08-08T00:14:57.046Z,23.70
2022-08-08T00:18:04.508Z,23.60
2022-08-08T00:20:50.730Z,23.50
2022-08-08T00:23:52.052Z,23.50
2022-08-08T00:26:32.976Z,23.50
2022-08-08T00:29:45.799Z,23.10
2022-08-08T00:32:38.430Z,23.20
2022-08-08T00:35:48.180Z,22.80
2022-08-08T00:38:57.307Z,22.60
2022-08-08T00:42:33.069Z,22.70
2022-08-08T00:46:03.065Z,23.00
2022-08-08T00:49:37.350Z,22.70
2022-08-08T00:52:48.887Z,22.80
2022-08-08T00:55:53.948Z,23.40
2022-08-08T00:58:54.767Z,24.10
2022-08-08T01:01:46.745Z,23.80
2022-08-08T01:04:59.675Z,23.20
2022-08-08T01:08:28.711Z,23.40
2022-08-08T01:11:24.742Z,23.00
2022-08-08T01:14:54.350Z,22.80
2022-08-08T01:17:20.553Z,22.60
2022-08-08T01:20:45.832Z,22.90
2022-08-08T01:24:16.428Z,22.80
2022-08-08T01:27:24.214Z,22.40
2022-08-08T01:31:00.650Z,22.20
2022-08-08T01:33:54.108Z,22.20
2022-08-08T01:37:56.213Z,22.40
2022-08-08T01:41:11.714Z,22.60
2022-08-08T01:44:19.277Z,22.50
2022-08-08T01:48:14.949Z,22.70
2022-08-08T01:51:02.834Z,21.90
2022-08-08T01:55:46.193Z,22.30
2022-08-08T01:58:11.365Z,22.40
2022-08-08T02:01:08.960Z,22.30
2022-08-08T02:04:06.405Z,22.40
2022-08-08T02:07:04.111Z,22.00
2022-08-08T02:10:01.535Z,21.70
2022-08-08T02:13:00.587Z,21.80
2022-08-08T02:15:46.104Z,22.50
2022-08-08T02:18:39.494Z,22.00
2022-08-08T02:21:49.039Z,22.10
2022-08-08T02:24:28.378Z,21.80
2022-08-08T02:27:07.753Z,21.60
2022-08-08T02:30:05.419Z,21.80
2022-08-08T02:33:41.609Z,22.10
2022-08-08T02:36:58.908Z,22.00
2022-08-08T02:40:00.150Z,21.60
2022-08-08T02:44:34.968Z,21.70
2022-08-08T02:46:46.983Z,21.60
2022-08-08T02:50:18.061Z,21.50
2022-08-08T02:53:27.795Z,21.80
2022-08-08T02:56:26.167Z,21.60
2022-08-08T02:59:57.498Z,22.00
2022-08-08T03:02:50.367Z,21.90
2022-08-08T03:05:44.931Z,21.80
2022-08-08T03:08:45.046Z,21.70
2022-08-08T03:12:06.095Z,21.40
2022-08-08T03:15:57.620Z,21.30
2022-08-08T03:18:13.789Z,21.20
2022-08-08T03:20:51.998Z,21.40
2022-08-08T03:23:23.394Z,21.50
2022-08-08T03:25:56.768Z,21.60
2022-08-08T03:28:41.003Z,21.20
2022-08-08T03:31:38.131Z,21.00
2022-08-08T03:34:22.637Z,21.20
2022-08-08T03:36:57.457Z,21.20
2022-08-08T03:39:28.584Z,21.00
2022-08-08T03:42:11.996Z,21.20
2022-08-08T03:44:52.310Z,21.40
2022-08-08T03:47:25.197Z,21.30
2022-08-08T03:50:24.628Z,21.10
2022-08-08T03:52:56.771Z,20.90
2022-08-08T03:55:57.174Z,21.00
2022-08-08T03:58:36.335Z,21.40
2022-08-08T04:01:23.747Z,21.20
2022-08-08T04:04:00.249Z,21.40
2022-08-08T04:06:33.435Z,21.20
2022-08-08T04:09:11.187Z,20.70
2022-08-08T04:11:58.635Z,20.90
2022-08-08T04:14:34.410Z,20.90
2022-08-08T04:17:22.362Z,21.10
2022-08-08T04:19:58.121Z,21.00
2022-08-08T04:22:30.499Z,20.90
2022-08-08T04:25:02.227Z,21.10
2022-08-08T04:28:03.137Z,21.10
2022-08-08T04:30:25.455Z,21.20
2022-08-08T04:32:56.599Z,21.10
2022-08-08T04:35:29.398Z,21.40
2022-08-08T04:38:03.317Z,21.00
2022-08-08T04:40:34.495Z,21.30
2022-08-08T04:43:08.792Z,21.30
2022-08-08T04:45:40.520Z,21.20
2022-08-08T04:48:12.144Z,21.20
2022-08-08T04:50:46.412Z,21.10
2022-08-08T04:54:26.937Z,21.30
2022-08-08T04:56:09.570Z,21.20
2022-08-08T04:58:40.496Z,21.40
2022-08-08T05:01:12.078Z,21.30
2022-08-08T05:04:10.299Z,21.00
2022-08-08T05:06:33.997Z,21.10
2022-08-08T05:09:07.705Z,21.10
2022-08-08T05:11:41.829Z,21.50
2022-08-08T05:14:20.529Z,21.70
2022-08-08T05:17:00.401Z,21.90
2022-08-08T05:20:11.292Z,22.00
2022-08-08T05:22:27.890Z,21.90
2022-08-08T05:25:00.768Z,22.10
2022-08-08T05:27:33.541Z,22.30
2022-08-08T05:30:12.502Z,22.30
2022-08-08T05:32:43.959Z,22.40
2022-08-08T05:35:15.488Z,22.50
2022-08-08T05:37:56.169Z,22.80
2022-08-08T05:40:34.729Z,22.80
2022-08-08T05:43:15.479Z,22.70
2022-08-08T05:46:08.017Z,23.10
2022-08-08T05:48:41.999Z,23.20
2022-08-08T05:51:15.624Z,23.00
2022-08-08T05:54:25.470Z,23.30
2022-08-08T05:56:42.323Z,23.50
2022-08-08T05:59:59.552Z,23.90
2022-08-08T06:02:48.145Z,23.90
2022-08-08T06:05:33.209Z,23.50
2022-08-08T06:08:28.549Z,23.00
2022-08-08T06:11:00.975Z,23.80
2022-08-08T06:13:35.755Z,23.90
2022-08-08T06:16:13.990Z,24.20
2022-08-08T06:18:45.484Z,24.10
2022-08-08T06:21:32.708Z,24.30
2022-08-08T06:24:14.010Z,24.20
2022-08-08T06:27:05.617Z,24.20
2022-08-08T06:30:01.181Z,24.20
2022-08-08T06:32:52.687Z,24.10
2022-08-08T06:36:07.780Z,24.40
2022-08-08T06:38:27.524Z,24.50
2022-08-08T06:41:07.393Z,25.00
2022-08-08T06:43:42.854Z,24.80
2022-08-08T06:46:30.115Z,25.10
2022-08-08T06:49:01.379Z,25.10
2022-08-08T06:51:47.020Z,25.00
2022-08-08T06:54:23.890Z,25.30
2022-08-08T06:56:59.138Z,25.00
2022-08-08T06:59:34.396Z,25.10
2022-08-08T07:02:29.486Z,25.20
2022-08-08T07:05:20.772Z,25.60
2022-08-08T07:08:17.211Z,25.70
2022-08-08T07:10:51.970Z,25.80
2022-08-08T07:13:33.380Z,25.70
2022-08-08T07:16:19.216Z,26.10
2022-08-08T07:19:12.501Z,25.90
2022-08-08T07:22:02.066Z,25.80
2022-08-08T07:24:46.576Z,26.20
2022-08-08T07:27:35.567Z,26.10
2022-08-08T07:30:25.334Z,26.00
2022-08-08T07:32:59.645Z,26.60
2022-08-08T07:35:35.657Z,26.60
2022-08-08T07:38:18.397Z,26.50
2022-08-08T07:41:04.490Z,26.30
2022-08-08T07:43:39.483Z,26.60
2022-08-08T07:46:23.860Z,27.00
2022-08-08T07:49:01.585Z,27.30
2022-08-08T07:51:44.914Z,27.10
2022-08-08T07:54:49.043Z,26.50
2022-08-08T07:57:48.166Z,27.10
2022-08-08T08:00:20.077Z,27.20
2022-08-08T08:03:20.803Z,27.50
2022-08-08T08:05:55.723Z,27.60
2022-08-08T08:08:39.201Z,27.70
2022-08-08T08:11:20.040Z,27.80
2022-08-08T08:14:10.703Z,27.80
2022-08-08T08:16:50.583Z,28.00
2022-08-08T08:19:27.061Z,28.00
2022-08-08T08:22:31.769Z,28.40
2022-08-08T08:25:07.728Z,28.30
2022-08-08T08:27:39.482Z,28.50
2022-08-08T08:30:18.032Z,28.50
2022-08-08T08:32:51.324Z,28.70
2022-08-08T08:35:29.925Z,28.90
2022-08-08T08:38:17.246Z,28.90
2022-08-08T08:40:51.352Z,28.70
2022-08-08T08:43:26.535Z,28.80
2022-08-08T08:46:03.576Z,29.10
2022-08-08T08:48:37.639Z,29.20
2022-08-08T08:51:21.284Z,29.40
2022-08-08T08:53:59.658Z,29.10
2022-08-08T08:56:33.169Z,29.30
2022-08-08T08:59:05.522Z,29.60
2022-08-08T09:01:45.533Z,29.80
2022-08-08T09:04:31.727Z,29.00
2022-08-08T09:07:13.512Z,28.80
2022-08-08T09:09:55.071Z,29.30
2022-08-08T09:12:31.943Z,29.80
2022-08-08T09:15:03.410Z,29.50
2022-08-08T09:17:52.231Z,29.80
2022-08-08T09:22:00.312Z,30.00
2022-08-08T09:23:25.901Z,30.10
2022-08-08T09:26:39.584Z,30.30
2022-08-08T09:29:22.430Z,30.00
2022-08-08T09:32:05.299Z,30.50
2022-08-08T09:34:50.545Z,30.70
2022-08-08T09:37:58.472Z,30.60
2022-08-08T09:40:40.726Z,30.60
2022-08-08T09:43:41.164Z,30.80
2022-08-08T09:46:16.968Z,30.60
2022-08-08T09:49:18.369Z,30.80
2022-08-08T09:52:06.976Z,30.90
2022-08-08T09:54:44.739Z,30.90
2022-08-08T09:57:45.615Z,31.10
2022-08-08T10:00:53.031Z,30.60
2022-08-08T10:03:20.080Z,30.70
2022-08-08T10:05:51.209Z,31.00
2022-08-08T10:08:22.269Z,30.90
2022-08-08T10:10:58.819Z,31.10
2022-08-08T10:13:35.504Z,30.60
2022-08-08T10:16:07.241Z,31.00
2022-08-08T10:18:40.237Z,31.10
2022-08-08T10:21:24.936Z,31.20
2022-08-08T10:24:28.882Z,30.80
2022-08-08T10:27:13.075Z,31.40
2022-08-08T10:29:58.461Z,31.80
2022-08-08T10:32:32.466Z,31.70
2022-08-08T10:36:09.689Z,31.80
2022-08-08T10:38:16.210Z,32.20
2022-08-08T10:40:53.199Z,32.40
2022-08-08T10:43:25.946Z,32.10
2022-08-08T10:46:03.496Z,32.10
2022-08-08T10:48:56.504Z,32.40
2022-08-08T10:51:47.142Z,31.90
2022-08-08T10:54:24.953Z,32.30
2022-08-08T10:56:59.862Z,32.20
2022-08-08T10:59:39.319Z,32.20
2022-08-08T11:02:11.768Z,32.30
2022-08-08T11:04:53.355Z,32.40
2022-08-08T11:08:38.932Z,32.00
2022-08-08T11:10:41.424Z,32.50
2022-08-08T11:13:29.493Z,32.60
2022-08-08T11:16:07.997Z,33.10
2022-08-08T11:18:44.594Z,34.20
2022-08-08T11:21:23.897Z,34.70
2022-08-08T11:24:11.144Z,34.60
2022-08-08T11:26:56.488Z,34.90
2022-08-08T11:29:51.062Z,35.70
2022-08-08T11:32:29.549Z,37.00
2022-08-08T11:35:27.539Z,35.80
2022-08-08T11:38:37.174Z,36.80
2022-08-08T11:40:51.863Z,35.30
2022-08-08T11:43:38.570Z,36.50
2022-08-08T11:46:18.409Z,37.20
2022-08-08T11:48:51.793Z,36.80
2022-08-08T11:51:29.927Z,35.90
2022-08-08T11:54:31.552Z,36.70
2022-08-08T11:57:27.201Z,36.40
2022-08-08T12:00:06.187Z,36.50
2022-08-08T12:02:55.519Z,36.10
2022-08-08T12:05:40.914Z,36.40
2022-08-08T12:08:11.952Z,36.40
2022-08-08T12:10:52.468Z,35.80
2022-08-08T12:13:33.323Z,36.10
2022-08-08T12:16:13.178Z,36.50
2022-08-08T12:18:55.166Z,36.40
2022-08-08T12:21:59.538Z,36.40
2022-08-08T12:24:27.617Z,36.00
2022-08-08T12:26:59.429Z,36.10
2022-08-08T12:29:41.033Z,36.30
2022-08-08T12:32:20.635Z,36.20
2022-08-08T12:35:13.623Z,36.30
2022-08-08T12:38:08.848Z,36.30
2022-08-08T12:40:56.516Z,36.70
2022-08-08T12:43:32.736Z,37.10
2022-08-08T12:46:25.113Z,37.20
2022-08-08T12:51:59.248Z,36.30
2022-08-08T12:54:38.157Z,36.70
2022-08-08T12:57:23.386Z,37.50
2022-08-08T13:00:06.917Z,36.90
2022-08-08T13:02:51.228Z,37.80
2022-08-08T13:06:04.245Z,37.20
2022-08-08T13:08:21.239Z,37.00
2022-08-08T13:10:58.274Z,37.80
2022-08-08T13:13:37.675Z,37.80
2022-08-08T13:16:25.772Z,37.40
2022-08-08T13:19:00.536Z,37.30
2022-08-08T13:21:52.979Z,37.80
2022-08-08T13:24:48.486Z,37.00
2022-08-08T13:27:35.837Z,37.60
2022-08-08T13:30:10.543Z,37.40
2022-08-08T13:32:41.624Z,36.90
2022-08-08T13:35:25.111Z,36.90
2022-08-08T13:38:07.176Z,36.70
2022-08-08T13:40:40.947Z,37.30
2022-08-08T13:43:16.070Z,37.20
2022-08-08T13:45:47.851Z,37.70
2022-08-08T13:48:19.651Z,38.20
2022-08-08T13:51:33.376Z,37.80
2022-08-08T13:54:00.575Z,37.70
2022-08-08T13:56:44.755Z,37.50
2022-08-08T13:59:39.217Z,38.00
2022-08-08T14:02:33.030Z,38.20
2022-08-08T14:05:20.278Z,38.60
2022-08-08T14:07:59.637Z,39.00
2022-08-08T14:10:37.498Z,39.00
2022-08-08T14:13:31.277Z,38.40
2022-08-08T14:16:16.023Z,38.90
2022-08-08T14:18:55.479Z,38.30
2022-08-08T14:21:51.911Z,38.40
2022-08-08T14:24:34.018Z,38.60
2022-08-08T14:27:18.561Z,38.00
2022-08-08T14:30:18.107Z,38.60
2022-08-08T14:32:53.236Z,38.60
2022-08-08T14:35:36.069Z,38.50
2022-08-08T14:38:34.327Z,38.30
2022-08-08T14:41:43.348Z,39.00
2022-08-08T14:44:13.217Z,38.70
2022-08-08T14:47:00.386Z,39.20
2022-08-08T14:49:51.380Z,38.80
2022-08-08T14:52:26.517Z,39.90
2022-08-08T14:54:58.420Z,39.60
2022-08-08T14:58:02.642Z,39.50
2022-08-08T15:00:21.757Z,39.10
2022-08-08T15:03:15.580Z,39.70
2022-08-08T15:05:54.640Z,39.60
2022-08-08T15:08:35.664Z,39.70
2022-08-08T15:11:11.584Z,39.60
2022-08-08T15:14:02.026Z,38.80
2022-08-08T15:16:35.031Z,39.30
2022-08-08T15:19:06.927Z,39.80
2022-08-08T15:21:42.848Z,40.20
2022-08-08T15:24:16.195Z,39.80
2022-08-08T15:26:53.132Z,39.20
2022-08-08T15:29:25.499Z,39.40
2022-08-08T15:32:19.847Z,39.60
2022-08-08T15:34:47.498Z,38.70
2022-08-08T15:37:19.268Z,39.30
2022-08-08T15:39:51.783Z,39.10
2022-08-08T15:42:32.170Z,39.20
2022-08-08T15:45:04.561Z,39.40
2022-08-08T15:47:35.988Z,39.80
2022-08-08T15:50:15.628Z,39.30
2022-08-08T15:52:54.127Z,39.80
2022-08-08T15:55:26.908Z,40.30
2022-08-08T15:57:59.092Z,40.10
2022-08-08T16:00:30.913Z,39.90
2022-08-08T16:03:01.789Z,39.00
2022-08-08T16:05:35.303Z,38.90
2022-08-08T16:08:12.302Z,39.10
2022-08-08T16:13:21.206Z,39.40
2022-08-08T16:13:45.786Z,40.00
2022-08-08T16:16:18.623Z,40.20
2022-08-08T16:18:56.829Z,40.10
2022-08-08T16:21:32.102Z,39.50
2022-08-08T16:24:06.409Z,40.10
2022-08-08T16:26:39.898Z,39.90
2022-08-08T16:29:37.515Z,38.70
2022-08-08T16:32:21.977Z,39.30
2022-08-08T16:34:56.759Z,39.00
2022-08-08T16:37:28.241Z,39.00
2022-08-08T16:40:03.241Z,38.90
2022-08-08T16:42:40.272Z,39.30
2022-08-08T16:46:37.367Z,39.80
2022-08-08T16:48:02.509Z,39.60
2022-08-08T16:50:33.651Z,39.30
2022-08-08T16:55:01.410Z,39.80
2022-08-08T16:55:57.806Z,39.30
2022-08-08T16:58:36.079Z,39.50
2022-08-08T17:01:12.006Z,39.30
2022-08-08T17:04:00.263Z,38.40
2022-08-08T17:06:37.374Z,38.40
2022-08-08T17:09:14.817Z,39.20
2022-08-08T17:11:48.617Z,38.60
2022-08-08T17:14:27.603Z,38.50
2022-08-08T17:17:41.298Z,38.90
2022-08-08T17:19:58.743Z,39.00
2022-08-08T17:22:33.002Z,38.90
2022-08-08T17:25:11.651Z,39.10
2022-08-08T17:27:47.361Z,38.70
2022-08-08T17:30:23.640Z,39.10
2022-08-08T17:34:35.194Z,38.30
2022-08-08T17:35:55.875Z,38.40
2022-08-08T17:38:42.288Z,38.40
2022-08-08T17:41:13.658Z,38.00
2022-08-08T17:44:01.165Z,38.50
2022-08-08T17:46:43.465Z,38.10
2022-08-08T17:49:24.760Z,37.30
2022-08-08T17:51:55.868Z,37.00
2022-08-08T17:54:29.010Z,37.00
2022-08-08T17:57:01.125Z,36.40
2022-08-08T17:59:36.030Z,36.50
2022-08-08T18:02:11.269Z,35.90
2022-08-08T18:04:50.958Z,35.80
2022-08-08T18:08:02.454Z,35.90
2022-08-08T18:10:14.728Z,35.90
2022-08-08T18:12:46.248Z,35.40
2022-08-08T18:15:19.486Z,35.70
2022-08-08T18:18:27.206Z,35.40
2022-08-08T18:20:59.223Z,35.00
2022-08-08T18:23:30.836Z,35.20
2022-08-08T18:26:04.080Z,34.90
2022-08-08T18:28:54.156Z,34.70
2022-08-08T18:31:27.743Z,34.70
2022-08-08T18:34:11.401Z,34.30
2022-08-08T18:36:50.250Z,34.30
2022-08-08T18:39:28.071Z,34.10
2022-08-08T18:42:03.675Z,34.00
2022-08-08T18:44:36.219Z,33.80
2022-08-08T18:47:07.269Z,33.80
2022-08-08T18:49:57.718Z,33.70
2022-08-08T18:52:36.853Z,33.70
2022-08-08T18:55:11.608Z,33.80
2022-08-08T18:57:45.157Z,33.50
2022-08-08T19:00:21.029Z,33.50
2022-08-08T19:03:05.880Z,33.30
2022-08-08T19:05:46.442Z,33.20
2022-08-08T19:08:28.334Z,32.80
2022-08-08T19:11:09.362Z,32.90
2022-08-08T19:13:56.430Z,32.90
2022-08-08T19:16:32.301Z,32.80
2022-08-08T19:19:13.550Z,32.60
2022-08-08T19:21:49.787Z,32.60
2022-08-08T19:24:42.165Z,32.20
2022-08-08T19:27:12.010Z,32.10
2022-08-08T19:29:46.261Z,31.70
2022-08-08T19:32:22.899Z,31.40
2022-08-08T19:34:55.162Z,31.40
2022-08-08T19:37:43.668Z,31.30
2022-08-08T19:40:18.295Z,31.40
2022-08-08T19:42:53.814Z,31.00
2022-08-08T19:45:58.944Z,30.80
2022-08-08T19:48:29.056Z,30.80
2022-08-08T19:51:02.816Z,30.60
2022-08-08T19:53:52.225Z,30.70
2022-08-08T19:56:25.519Z,30.80
2022-08-08T19:59:11.678Z,30.70
2022-08-08T20:02:00.985Z,30.70
2022-08-08T20:04:35.234Z,30.40
2022-08-08T20:08:27.818Z,30.50
2022-08-08T20:10:10.765Z,30.40
2022-08-08T20:12:58.960Z,30.20
2022-08-08T20:15:52.367Z,29.90
2022-08-08T20:18:24.452Z,29.60
2022-08-08T20:21:08.035Z,29.50
2022-08-08T20:23:42.247Z,29.50
2022-08-08T20:26:14.743Z,29.60
2022-08-08T20:28:46.435Z,29.60
2022-08-08T20:31:22.452Z,29.40
2022-08-08T20:34:27.050Z,29.50
2022-08-08T20:36:44.300Z,29.50
2022-08-08T20:39:16.887Z,29.30
2022-08-08T20:41:52.346Z,29.30
2022-08-08T20:44:25.193Z,29.30
2022-08-08T20:46:56.219Z,29.30
2022-08-08T20:49:39.736Z,29.10
2022-08-08T20:52:12.135Z,29.10
2022-08-08T20:54:44.302Z,28.80
2022-08-08T20:57:17.222Z,28.70
2022-08-08T20:59:50.239Z,28.70
2022-08-08T21:02:25.324Z,28.80
2022-08-08T21:05:01.838Z,28.70
2022-08-08T21:08:07.718Z,28.80
2022-08-08T21:10:28.350Z,28.90
2022-08-08T21:13:00.860Z,28.70
2022-08-08T21:16:06.088Z,28.90
2022-08-08T21:18:27.816Z,29.00
2022-08-08T21:20:59.099Z,28.60
2022-08-08T21:24:02.752Z,28.60
2022-08-08T21:26:26.991Z,28.70
2022-08-08T21:29:01.018Z,28.70
2022-08-08T21:31:58.310Z,28.50
2022-08-08T21:34:24.490Z,28.30
2022-08-08T21:37:11.099Z,28.10
2022-08-08T21:39:56.925Z,28.10
2022-08-08T21:42:28.254Z,28.30
2022-08-08T21:45:01.206Z,28.10
2022-08-08T21:48:08.062Z,28.20
2022-08-08T21:50:44.464Z,27.80
2022-08-08T21:54:32.271Z,27.30
2022-08-08T21:56:25.924Z,27.60
2022-08-08T21:59:05.801Z,27.70
2022-08-08T22:01:42.682Z,27.80
2022-08-08T22:04:13.759Z,27.70
2022-08-08T22:06:46.905Z,27.80
2022-08-08T22:09:18.171Z,27.60
2022-08-08T22:11:59.588Z,27.70
2022-08-08T22:14:35.776Z,27.40
2022-08-08T22:17:07.134Z,27.30
2022-08-08T22:20:12.720Z,27.10
2022-08-08T22:22:32.431Z,26.90
2022-08-08T22:25:19.855Z,26.80
2022-08-08T22:28:02.846Z,26.90
2022-08-08T22:30:35.898Z,26.80
2022-08-08T22:34:05.046Z,27.00
2022-08-08T22:36:04.223Z,26.80
2022-08-08T22:38:48.947Z,26.60
2022-08-08T22:41:21.727Z,26.20
2022-08-08T22:44:05.434Z,26.30
2022-08-08T22:46:39.543Z,26.90
2022-08-08T22:49:10.757Z,27.40
2022-08-08T22:51:46.252Z,26.90
2022-08-08T22:54:30.867Z,26.80
2022-08-08T22:57:11.544Z,26.70
2022-08-08T22:59:58.881Z,26.70
2022-08-08T23:02:30.583Z,26.90
2022-08-08T23:05:05.300Z,26.40
2022-08-08T23:07:50.950Z,26.50
2022-08-08T23:10:27.628Z,26.70
2022-08-08T23:12:58.684Z,26.30
2022-08-08T23:16:39.579Z,26.20
2022-08-08T23:18:22.064Z,26.30
2022-08-08T23:20:54.753Z,26.10
2022-08-08T23:23:25.983Z,26.10
2022-08-08T23:25:57.320Z,26.00
2022-08-08T23:28:28.805Z,25.80
2022-08-08T23:30:59.728Z,25.90
2022-08-08T23:34:15.413Z,25.70
2022-08-08T23:36:26.045Z,25.40
2022-08-08T23:38:57.861Z,25.60
2022-08-08T23:41:29.166Z,25.10
2022-08-08T23:44:03.088Z,24.90
2022-08-08T23:49:06.333Z,25.00
2022-08-08T23:49:26.421Z,24.90
2022-08-08T23:52:06.750Z,25.10
2022-08-08T23:54:53.424Z,25.10
2022-08-08T23:57:39.086Z,25.30
